sensor_id;sensor_type;location;lat;lon;timestamp;P1;durP1;ratioP1;P2;durP2;ratioP2
27666;SDS011;15074;50.940;5.282;2024-01-15T00:03:15;48.03;;;19.55;;
27666;SDS011;15074;50.940;5.282;2024-01-15T00:05:41;50.35;;;19.85;;
27666;SDS011;15074;50.940;5.282;2024-01-15T01:09:27;57.28;;;20.05;;
27666;SDS011;15074;50.940;5.282;2024-01-15T01:11:55;56.37;;;20.00;;
27666;SDS011;15074;50.940;5.282;2024-01-15T01:57:39;45.45;;;18.35;;
27666;SDS011;15074;50.940;5.282;2024-01-15T02:10:48;50.15;;;18.35;;
27666;SDS011;15074;50.940;5.282;2024-01-15T02:51:49;34.65;;;15.35;;
27666;SDS011;15074;50.940;5.282;2024-01-15T02:57:18;33.67;;;15.98;;
27666;SDS011;15074;50.940;5.282;2024-01-15T02:59:45;30.73;;;15.55;;
27666;SDS011;15074;50.940;5.282;2024-01-15T03:02:10;32.55;;;15.43;;
27666;SDS011;15074;50.940;5.282;2024-01-15T03:07:58;31.38;;;14.88;;
27666;SDS011;15074;50.940;5.282;2024-01-15T03:10:26;29.02;;;14.85;;
27666;SDS011;15074;50.940;5.282;2024-01-15T03:12:51;26.55;;;14.23;;
27666;SDS011;15074;50.940;5.282;2024-01-15T03:15:17;27.05;;;14.30;;
27666;SDS011;15074;50.940;5.282;2024-01-15T05:55:58;44.00;;;19.55;;
27666;SDS011;15074;50.940;5.282;2024-01-15T08:58:23;14.50;;;8.48;;
27666;SDS011;15074;50.940;5.282;2024-01-15T09:00:49;12.77;;;9.27;;
27666;SDS011;15074;50.940;5.282;2024-01-15T09:03:15;12.20;;;8.77;;
27666;SDS011;15074;50.940;5.282;2024-01-15T09:08:11;29.58;;;14.05;;
27666;SDS011;15074;50.940;5.282;2024-01-15T09:10:36;21.73;;;15.07;;
27666;SDS011;15074;50.940;5.282;2024-01-15T09:13:02;5.85;;;5.25;;
27666;SDS011;15074;50.940;5.282;2024-01-15T09:15:29;10.60;;;5.30;;
27666;SDS011;15074;50.940;5.282;2024-01-15T09:17:55;5.13;;;4.22;;
27666;SDS011;15074;50.940;5.282;2024-01-15T09:23:44;5.60;;;3.55;;
27666;SDS011;15074;50.940;5.282;2024-01-15T09:28:56;9.80;;;3.95;;
27666;SDS011;15074;50.940;5.282;2024-01-15T09:31:22;10.32;;;4.68;;
27666;SDS011;15074;50.940;5.282;2024-01-15T09:33:49;7.05;;;4.38;;
27666;SDS011;15074;50.940;5.282;2024-01-15T09:36:18;8.10;;;3.88;;
27666;SDS011;15074;50.940;5.282;2024-01-15T09:38:43;8.70;;;3.75;;
27666;SDS011;15074;50.940;5.282;2024-01-15T09:41:09;6.78;;;4.00;;
27666;SDS011;15074;50.940;5.282;2024-01-15T09:43:36;8.77;;;3.75;;
27666;SDS011;15074;50.940;5.282;2024-01-15T09:46:03;5.97;;;3.17;;
27666;SDS011;15074;50.940;5.282;2024-01-15T09:48:36;6.60;;;3.42;;
27666;SDS011;15074;50.940;5.282;2024-01-15T09:51:03;8.25;;;2.90;;
27666;SDS011;15074;50.940;5.282;2024-01-15T09:53:32;10.07;;;2.50;;
27666;SDS011;15074;50.940;5.282;2024-01-15T09:55:59;13.40;;;3.78;;
27666;SDS011;15074;50.940;5.282;2024-01-15T09:58:25;10.52;;;3.20;;
27666;SDS011;15074;50.940;5.282;2024-01-15T10:00:51;14.15;;;4.03;;
27666;SDS011;15074;50.940;5.282;2024-01-15T10:03:18;9.93;;;3.35;;
27666;SDS011;15074;50.940;5.282;2024-01-15T10:05:44;4.97;;;2.85;;
27666;SDS011;15074;50.940;5.282;2024-01-15T10:11:13;5.03;;;2.65;;
27666;SDS011;15074;50.940;5.282;2024-01-15T10:13:39;23.83;;;10.98;;
27666;SDS011;15074;50.940;5.282;2024-01-15T10:16:05;5.85;;;2.35;;
27666;SDS011;15074;50.940;5.282;2024-01-15T10:18:31;9.02;;;2.55;;
27666;SDS011;15074;50.940;5.282;2024-01-15T10:20:57;13.68;;;3.95;;
27666;SDS011;15074;50.940;5.282;2024-01-15T10:23:24;6.00;;;2.80;;
27666;SDS011;15074;50.940;5.282;2024-01-15T10:25:49;6.53;;;2.30;;
27666;SDS011;15074;50.940;5.282;2024-01-15T10:28:18;5.25;;;2.00;;
27666;SDS011;15074;50.940;5.282;2024-01-15T10:30:45;4.63;;;2.50;;
27666;SDS011;15074;50.940;5.282;2024-01-15T10:33:11;5.30;;;1.92;;
27666;SDS011;15074;50.940;5.282;2024-01-15T10:35:37;3.97;;;1.60;;
27666;SDS011;15074;50.940;5.282;2024-01-15T10:38:03;4.75;;;2.10;;
27666;SDS011;15074;50.940;5.282;2024-01-15T10:40:31;8.98;;;1.65;;
27666;SDS011;15074;50.940;5.282;2024-01-15T10:42:57;5.47;;;2.00;;
27666;SDS011;15074;50.940;5.282;2024-01-15T10:48:26;5.25;;;2.75;;
27666;SDS011;15074;50.940;5.282;2024-01-15T10:50:53;6.70;;;2.30;;
27666;SDS011;15074;50.940;5.282;2024-01-15T10:53:19;5.97;;;1.83;;
27666;SDS011;15074;50.940;5.282;2024-01-15T10:55:46;3.15;;;1.17;;
27666;SDS011;15074;50.940;5.282;2024-01-15T10:58:15;5.82;;;1.40;;
27666;SDS011;15074;50.940;5.282;2024-01-15T11:00:42;5.68;;;1.80;;
27666;SDS011;15074;50.940;5.282;2024-01-15T11:03:08;5.80;;;1.48;;
27666;SDS011;15074;50.940;5.282;2024-01-15T11:05:41;8.63;;;1.52;;
27666;SDS011;15074;50.940;5.282;2024-01-15T11:08:08;3.15;;;1.67;;
27666;SDS011;15074;50.940;5.282;2024-01-15T11:10:44;3.70;;;1.90;;
27666;SDS011;15074;50.940;5.282;2024-01-15T11:16:07;6.68;;;1.60;;
27666;SDS011;15074;50.940;5.282;2024-01-15T11:18:40;6.68;;;1.40;;
27666;SDS011;15074;50.940;5.282;2024-01-15T11:21:27;2.97;;;1.70;;
27666;SDS011;15074;50.940;5.282;2024-01-15T11:29:43;4.47;;;1.90;;
27666;SDS011;15074;50.940;5.282;2024-01-15T11:31:57;11.48;;;2.10;;
27666;SDS011;15074;50.940;5.282;2024-01-15T11:37:16;6.22;;;1.98;;
27666;SDS011;15074;50.940;5.282;2024-01-15T11:39:44;5.13;;;1.40;;
27666;SDS011;15074;50.940;5.282;2024-01-15T11:42:25;3.75;;;1.73;;
27666;SDS011;15074;50.940;5.282;2024-01-15T11:44:52;6.32;;;2.17;;
27666;SDS011;15074;50.940;5.282;2024-01-15T11:47:27;4.13;;;2.30;;
27666;SDS011;15074;50.940;5.282;2024-01-15T11:50:10;5.95;;;2.75;;
27666;SDS011;15074;50.940;5.282;2024-01-15T11:52:38;4.60;;;2.28;;
27666;SDS011;15074;50.940;5.282;2024-01-15T11:58:27;4.05;;;2.95;;
27666;SDS011;15074;50.940;5.282;2024-01-15T12:00:54;7.07;;;2.20;;
27666;SDS011;15074;50.940;5.282;2024-01-15T12:03:25;5.55;;;2.53;;
27666;SDS011;15074;50.940;5.282;2024-01-15T12:05:54;7.00;;;2.88;;
27666;SDS011;15074;50.940;5.282;2024-01-15T12:08:24;3.88;;;2.55;;
27666;SDS011;15074;50.940;5.282;2024-01-15T12:10:50;4.78;;;2.95;;
27666;SDS011;15074;50.940;5.282;2024-01-15T12:13:16;3.60;;;2.33;;
27666;SDS011;15074;50.940;5.282;2024-01-15T12:15:45;3.25;;;2.40;;
27666;SDS011;15074;50.940;5.282;2024-01-15T12:18:14;3.60;;;2.67;;
27666;SDS011;15074;50.940;5.282;2024-01-15T12:20:44;2.60;;;1.77;;
27666;SDS011;15074;50.940;5.282;2024-01-15T12:23:12;4.80;;;1.92;;
27666;SDS011;15074;50.940;5.282;2024-01-15T12:25:38;3.45;;;1.90;;
27666;SDS011;15074;50.940;5.282;2024-01-15T12:31:26;3.58;;;1.63;;
27666;SDS011;15074;50.940;5.282;2024-01-15T12:37:18;5.30;;;2.33;;
27666;SDS011;15074;50.940;5.282;2024-01-15T12:43:11;2.42;;;2.10;;
27666;SDS011;15074;50.940;5.282;2024-01-15T12:48:22;3.80;;;2.30;;
27666;SDS011;15074;50.940;5.282;2024-01-15T12:50:48;3.40;;;2.20;;
27666;SDS011;15074;50.940;5.282;2024-01-15T12:53:13;3.65;;;2.05;;
27666;SDS011;15074;50.940;5.282;2024-01-15T12:55:39;2.70;;;1.95;;
27666;SDS011;15074;50.940;5.282;2024-01-15T12:58:05;3.10;;;2.10;;
27666;SDS011;15074;50.940;5.282;2024-01-15T13:00:30;3.28;;;2.47;;
27666;SDS011;15074;50.940;5.282;2024-01-15T13:02:56;4.13;;;2.10;;
27666;SDS011;15074;50.940;5.282;2024-01-15T13:05:22;3.70;;;2.30;;
27666;SDS011;15074;50.940;5.282;2024-01-15T13:07:49;3.27;;;1.50;;
27666;SDS011;15074;50.940;5.282;2024-01-15T13:10:15;2.20;;;1.30;;
27666;SDS011;15074;50.940;5.282;2024-01-15T13:12:41;2.83;;;1.50;;
27666;SDS011;15074;50.940;5.282;2024-01-15T13:15:07;4.32;;;1.58;;
27666;SDS011;15074;50.940;5.282;2024-01-15T13:17:36;4.00;;;2.30;;
27666;SDS011;15074;50.940;5.282;2024-01-15T13:20:03;3.67;;;2.13;;
27666;SDS011;15074;50.940;5.282;2024-01-15T13:22:29;2.17;;;1.77;;
27666;SDS011;15074;50.940;5.282;2024-01-15T13:24:57;2.08;;;1.25;;
27666;SDS011;15074;50.940;5.282;2024-01-15T13:27:23;1.40;;;1.20;;
27666;SDS011;15074;50.940;5.282;2024-01-15T13:29:49;3.08;;;1.50;;
27666;SDS011;15074;50.940;5.282;2024-01-15T13:32:14;2.78;;;1.90;;
27666;SDS011;15074;50.940;5.282;2024-01-15T13:34:47;5.15;;;1.50;;
27666;SDS011;15074;50.940;5.282;2024-01-15T13:37:13;3.38;;;1.30;;
27666;SDS011;15074;50.940;5.282;2024-01-15T13:39:38;4.85;;;1.77;;
27666;SDS011;15074;50.940;5.282;2024-01-15T13:52:10;3.53;;;2.20;;
27666;SDS011;15074;50.940;5.282;2024-01-15T13:54:41;5.22;;;1.60;;
27666;SDS011;15074;50.940;5.282;2024-01-15T14:00:36;3.25;;;1.50;;
27666;SDS011;15074;50.940;5.282;2024-01-15T14:06:25;2.90;;;1.30;;
27666;SDS011;15074;50.940;5.282;2024-01-15T14:12:14;2.90;;;1.55;;
27666;SDS011;15074;50.940;5.282;2024-01-15T14:14:40;1.52;;;1.10;;
27666;SDS011;15074;50.940;5.282;2024-01-15T14:17:06;2.60;;;1.13;;
27666;SDS011;15074;50.940;5.282;2024-01-15T14:19:31;2.42;;;1.30;;
27666;SDS011;15074;50.940;5.282;2024-01-15T14:21:58;1.42;;;1.20;;
27666;SDS011;15074;50.940;5.282;2024-01-15T14:24:23;1.90;;;1.25;;
27666;SDS011;15074;50.940;5.282;2024-01-15T14:26:50;2.70;;;1.42;;
27666;SDS011;15074;50.940;5.282;2024-01-15T14:29:16;2.90;;;1.60;;
27666;SDS011;15074;50.940;5.282;2024-01-15T14:31:43;2.50;;;1.58;;
27666;SDS011;15074;50.940;5.282;2024-01-15T14:34:11;2.22;;;1.48;;
27666;SDS011;15074;50.940;5.282;2024-01-15T14:36:37;1.90;;;1.40;;
27666;SDS011;15074;50.940;5.282;2024-01-15T14:39:02;3.20;;;1.60;;
27666;SDS011;15074;50.940;5.282;2024-01-15T14:41:28;2.45;;;1.67;;
27666;SDS011;15074;50.940;5.282;2024-01-15T14:47:22;2.40;;;1.50;;
27666;SDS011;15074;50.940;5.282;2024-01-15T14:49:49;6.18;;;4.20;;
27666;SDS011;15074;50.940;5.282;2024-01-15T14:52:15;9.82;;;5.45;;
27666;SDS011;15074;50.940;5.282;2024-01-15T14:54:41;5.38;;;4.00;;
27666;SDS011;15074;50.940;5.282;2024-01-15T14:57:07;5.32;;;3.10;;
27666;SDS011;15074;50.940;5.282;2024-01-15T14:59:33;6.05;;;3.45;;
27666;SDS011;15074;50.940;5.282;2024-01-15T15:02:04;5.25;;;3.45;;
27666;SDS011;15074;50.940;5.282;2024-01-15T15:07:59;4.78;;;3.08;;
27666;SDS011;15074;50.940;5.282;2024-01-15T15:13:28;4.22;;;3.30;;
27666;SDS011;15074;50.940;5.282;2024-01-15T15:15:54;6.30;;;4.03;;
27666;SDS011;15074;50.940;5.282;2024-01-15T15:18:20;7.35;;;5.90;;
27666;SDS011;15074;50.940;5.282;2024-01-15T15:20:49;5.30;;;3.92;;
27666;SDS011;15074;50.940;5.282;2024-01-15T15:23:15;4.05;;;2.90;;
27666;SDS011;15074;50.940;5.282;2024-01-15T15:25:42;3.55;;;3.17;;
27666;SDS011;15074;50.940;5.282;2024-01-15T15:28:08;4.43;;;2.72;;
27666;SDS011;15074;50.940;5.282;2024-01-15T15:30:35;3.40;;;2.45;;
27666;SDS011;15074;50.940;5.282;2024-01-15T15:33:03;3.40;;;2.85;;
27666;SDS011;15074;50.940;5.282;2024-01-15T15:35:30;5.45;;;3.47;;
27666;SDS011;15074;50.940;5.282;2024-01-15T15:37:56;5.15;;;3.08;;
27666;SDS011;15074;50.940;5.282;2024-01-15T15:43:45;3.28;;;2.53;;
27666;SDS011;15074;50.940;5.282;2024-01-15T15:52:17;2.60;;;1.85;;
27666;SDS011;15074;50.940;5.282;2024-01-15T15:58:05;3.63;;;2.00;;
27666;SDS011;15074;50.940;5.282;2024-01-15T16:00:31;3.50;;;1.75;;
27666;SDS011;15074;50.940;5.282;2024-01-15T16:02:57;4.45;;;2.10;;
27666;SDS011;15074;50.940;5.282;2024-01-15T16:05:23;3.00;;;1.58;;
27666;SDS011;15074;50.940;5.282;2024-01-15T16:07:49;2.75;;;1.40;;
27666;SDS011;15074;50.940;5.282;2024-01-15T16:10:15;3.38;;;1.42;;
